Terminal Aerodrome Forecast
Issued by NWS Charleston, SC

Home | Current Version | Previous Version | Text Only | Print | Product List | Glossary On
Versions: 1 2 3 4 5 6 7 8 9 10 11 12 13 14 15 16
691
FTUS42 KCHS 232320
TAFSAV
TAF
KSAV 232320Z 2400/2424 10006KT P6SM FEW040 SCT200
     FM240600 04003KT P6SM FEW250
     FM241500 04010KT P6SM SCT040 SCT150
     FM242300 05006KT P6SM SCT035=

USA.gov is the U.S. government's official web portal to all federal, state and local government web resources and services.